Time;durP1;ratioP1;P1;durP2;ratioP2;P2;SDS_P1;SDS_P2;PMS_P1;PMS_P2;Temp;Humidity;BMP_temperature;BMP_pressure;BME280_temperature;BME280_humidity;BME280_pressure;Samples;Min_cycle;Max_cycle;Signal;HPM_P1;HPM_P2
2022/07/09 00:02:11;;;;;;;3.85;2.63;;;;;;;20.77;nan;-24394.41;4957607;28;20276;-62
2022/07/09 00:04:47;;;;;;;3.65;2.50;;;;;;;20.68;nan;-24392.19;4962452;28;20178;-59
2022/07/09 00:07:14;;;;;;;3.88;2.70;;;;;;;20.75;nan;-24393.88;4957822;28;20189;-59
2022/07/09 00:09:40;;;;;;;4.68;3.03;;;;;;;20.71;nan;-24393.03;4960495;28;20217;-57
2022/07/09 00:12:06;;;;;;;4.28;3.13;;;;;;;20.37;nan;-24383.47;4957301;28;20712;-57
2022/07/09 00:14:31;;;;;;;4.55;2.70;;;;;;;20.28;nan;-24381.22;4960176;28;20190;-57
2022/07/09 00:16:57;;;;;;;5.97;3.30;;;;;;;20.69;nan;-24392.34;4960045;28;20181;-57
2022/07/09 00:19:22;;;;;;;4.10;2.70;;;;;;;20.70;nan;-24392.63;4958776;28;20229;-58
2022/07/09 00:21:48;;;;;;;4.70;3.03;;;;;;;20.57;nan;-24389.00;4961403;28;20260;-58
2022/07/09 00:24:13;;;;;;;4.60;2.80;;;;;;;20.53;nan;-24387.91;4959082;28;20249;-58
2022/07/09 00:26:38;;;;;;;5.70;2.83;;;;;;;20.46;nan;-24385.97;4961379;28;20213;-58
2022/07/09 00:29:04;;;;;;;4.95;3.30;;;;;;;20.37;nan;-24383.59;4955310;28;20264;-59
2022/07/09 00:31:30;;;;;;;4.82;3.03;;;;;;;20.55;nan;-24388.47;4959646;28;20194;-58
2022/07/09 00:33:55;;;;;;;5.65;3.40;;;;;;;20.55;nan;-24388.59;4959696;28;20272;-59
2022/07/09 00:36:20;;;;;;;5.32;3.22;;;;;;;20.32;nan;-24382.06;4959265;28;20194;-58
2022/07/09 00:38:46;;;;;;;7.28;3.75;;;;;;;20.28;nan;-24381.09;4960864;28;20678;-58
2022/07/09 00:41:11;;;;;;;4.57;3.05;;;;;;;20.50;nan;-24387.22;4956276;28;20209;-58
2022/07/09 00:43:37;;;;;;;5.18;3.65;;;;;;;20.30;nan;-24381.66;4960759;28;20230;-57
2022/07/09 00:46:02;;;;;;;5.97;3.88;;;;;;;20.43;nan;-24385.28;4959177;28;20630;-59
2022/07/09 00:48:27;;;;;;;5.70;3.50;;;;;;;20.13;nan;-24376.94;4959075;28;20210;-59
2022/07/09 00:50:53;;;;;;;5.63;3.60;;;;;;;20.25;nan;-24380.25;4960107;28;20205;-57
2022/07/09 00:53:24;;;;;;;6.07;3.67;;;;;;;20.02;nan;-24374.00;4958840;28;20182;-58
2022/07/09 00:55:51;;;;;;;4.47;3.15;;;;;;;20.14;nan;-24377.22;4960427;28;20185;-59
2022/07/09 00:58:18;;;;;;;4.78;2.85;;;;;;;20.38;nan;-24383.88;4959134;28;20174;-59
2022/07/09 01:00:44;;;;;;;4.50;3.17;;;;;;;20.15;nan;-24377.47;4960480;28;20181;-57
2022/07/09 01:03:10;;;;;;;5.85;3.38;;;;;;;20.34;nan;-24382.63;4958308;28;20189;-59
2022/07/09 01:05:35;;;;;;;5.05;3.47;;;;;;;20.41;nan;-24384.72;4960471;28;20194;-58
2022/07/09 01:08:04;;;;;;;6.55;3.50;;;;;;;;;;4956617;28;20182;-58
2022/07/09 01:10:31;;;;;;;4.82;3.28;;;;;;;20.38;nan;-24383.75;4959611;28;20206;-58
2022/07/09 01:12:56;;;;;;;5.30;3.60;;;;;;;19.79;nan;-24367.63;4954211;28;20528;-58
2022/07/09 01:15:22;;;;;;;4.03;3.05;;;;;;;19.90;nan;-24370.69;4955792;28;20193;-58
2022/07/09 01:17:48;;;;;;;4.60;2.97;;;;;;;20.17;nan;-24378.19;4960025;28;20275;-57
2022/07/09 01:20:13;;;;;;;4.35;3.15;;;;;;;20.24;nan;-24380.13;4955629;28;20221;-58
2022/07/09 01:22:41;;;;;;;3.85;3.05;;;;;;;20.16;nan;-24377.91;4959728;28;20182;-58
2022/07/09 01:25:09;;;;;;;5.03;3.22;;;;;;;20.22;nan;-24379.56;4954414;28;20273;-57
2022/07/09 01:27:36;;;;;;;4.53;3.25;;;;;;;20.32;nan;-24382.06;4957393;28;20208;-57
2022/07/09 01:30:04;;;;;;;4.95;3.05;;;;;;;20.11;nan;-24376.38;4958091;28;20229;-58
2022/07/09 01:32:30;;;;;;;4.50;2.85;;;;;;;20.09;nan;-24375.81;4958967;28;20196;-56
2022/07/09 01:34:56;;;;;;;4.00;3.25;;;;;;;20.40;nan;-24384.28;4959343;28;20185;-59
2022/07/09 01:37:21;;;;;;;5.30;3.20;;;;;;;20.43;nan;-24385.13;4958041;28;20252;-59
2022/07/09 01:39:49;;;;;;;4.57;3.25;;;;;;;20.05;nan;-24374.84;4956323;28;20177;-59
2022/07/09 01:42:19;;;;;;;4.93;3.40;;;;;;;20.37;nan;-24383.59;4958052;28;20276;-58
2022/07/09 01:44:46;;;;;;;4.28;3.03;;;;;;;20.37;nan;-24383.47;4958744;28;20261;-58
2022/07/09 01:47:27;;;;;;;4.60;2.90;;;;;;;20.33;nan;-24382.50;4959044;28;20197;-57
2022/07/09 01:49:56;;;;;;;5.22;3.35;;;;;;;20.21;nan;-24379.16;4959066;28;20291;-59
2022/07/09 01:52:22;;;;;;;4.63;2.95;;;;;;;20.13;nan;-24376.94;4963243;28;20209;-58
2022/07/09 01:55:11;;;;;;;5.63;2.97;;;;;;;20.53;nan;-24387.91;4962018;28;20182;-62
2022/07/09 01:57:54;;;;;;;9.43;3.60;;;;;;;20.50;nan;-24387.06;4973903;28;20174;-57
2022/07/09 02:00:27;;;;;;;5.20;3.03;;;;;;;20.31;nan;-24381.94;4959795;28;20236;-59
2022/07/09 02:02:54;;;;;;;4.95;3.30;;;;;;;20.16;nan;-24377.91;4715890;28;21298;-60
2022/07/09 02:05:20;;;;;;;4.68;3.13;;;;;;;20.18;nan;-24378.47;4582567;28;21407;-58
2022/07/09 02:07:46;;;;;;;6.18;3.17;;;;;;;20.08;nan;-24375.69;4517306;28;20874;-58
2022/07/09 02:10:12;;;;;;;3.90;2.97;;;;;;;20.04;nan;-24374.44;4434656;28;21523;-58
2022/07/09 02:12:38;;;;;;;5.30;3.08;;;;;;;20.03;nan;-24374.16;4960945;28;20189;-57
2022/07/09 02:15:04;;;;;;;4.15;2.97;;;;;;;20.28;nan;-24381.22;4961451;28;20274;-57
2022/07/09 02:17:29;;;;;;;4.15;2.90;;;;;;;20.12;nan;-24376.78;4962383;28;20256;-57
2022/07/09 02:19:54;;;;;;;4.97;3.17;;;;;;;20.18;nan;-24378.47;4959676;28;20308;-59
2022/07/09 02:22:20;;;;;;;4.35;2.95;;;;;;;20.14;nan;-24377.22;4961045;28;20189;-59
2022/07/09 02:24:45;;;;;;;4.75;3.08;;;;;;;19.96;nan;-24372.34;4963104;28;20276;-58
2022/07/09 02:27:11;;;;;;;4.40;3.03;;;;;;;20.16;nan;-24377.91;4961002;28;20277;-60
2022/07/09 02:29:36;;;;;;;4.95;3.38;;;;;;;19.95;nan;-24372.06;4963356;28;20319;-57
2022/07/09 02:32:02;;;;;;;4.22;2.92;;;;;;;20.11;nan;-24376.38;4961127;28;20658;-58
2022/07/09 02:34:27;;;;;;;5.13;3.17;;;;;;;20.10;nan;-24376.25;4959490;28;21617;-58
2022/07/09 02:36:53;;;;;;;4.60;2.95;;;;;;;20.02;nan;-24373.88;4960002;28;20189;-57
2022/07/09 02:39:18;;;;;;;3.90;2.80;;;;;;;20.36;nan;-24383.31;4958854;28;20603;-57
2022/07/09 02:41:44;;;;;;;4.57;3.10;;;;;;;20.23;nan;-24379.84;4962872;28;20177;-57
2022/07/09 02:44:10;;;;;;;5.43;3.30;;;;;;;16.43;nan;-24275.06;4960601;28;20277;-57
2022/07/09 02:46:35;;;;;;;3.75;2.65;;;;;;;20.20;nan;-24379.00;4963165;28;20494;-57
2022/07/09 02:49:00;;;;;;;4.45;2.88;;;;;;;20.13;nan;-24376.94;4961109;28;20190;-57
2022/07/09 02:51:26;;;;;;;4.43;3.00;;;;;;;20.02;nan;-24374.00;4958838;28;20618;-57
2022/07/09 02:53:51;;;;;;;5.55;3.08;;;;;;;20.26;nan;-24380.69;4962512;28;20185;-58
2022/07/09 02:56:17;;;;;;;3.72;2.95;;;;;;;20.23;nan;-24379.84;4961147;28;20241;-58
2022/07/09 02:58:42;;;;;;;5.05;3.00;;;;;;;18.49;nan;-24332.00;4962836;28;20212;-57
2022/07/09 03:01:08;;;;;;;4.55;2.88;;;;;;;19.92;nan;-24371.22;4960034;28;20187;-57
2022/07/09 03:03:36;;;;;;;3.60;2.83;;;;;;;19.11;nan;-24348.84;4964589;28;20258;-58
2022/07/09 03:06:03;;;;;;;6.22;3.17;;;;;;;20.14;nan;-24377.22;4960428;28;20182;-57
2022/07/09 03:08:28;;;;;;;3.28;2.30;;;;;;;20.28;nan;-24381.22;4963668;28;20622;-57
2022/07/09 03:10:54;;;;;;;3.67;2.80;;;;;;;20.47;nan;-24386.38;4961937;28;20204;-57
2022/07/09 03:13:19;;;;;;;4.18;2.80;;;;;;;20.92;nan;-24398.72;4958019;28;20244;-57
2022/07/09 03:15:45;;;;;;;3.97;2.72;;;;;;;21.28;nan;-24408.56;4961934;28;20649;-59
2022/07/09 03:18:10;;;;;;;3.15;2.45;;;;;;;21.84;nan;-24423.81;4959863;28;20193;-58
2022/07/09 03:20:36;;;;;;;4.38;2.63;;;;;;;22.48;nan;-24441.41;4964432;28;20226;-57
2022/07/09 03:23:04;;;;;;;4.30;2.65;;;;;;;23.06;nan;-24457.16;4960316;28;20181;-57
2022/07/09 03:25:29;;;;;;;3.17;2.30;;;;;;;23.20;nan;-24461.03;4961206;28;20186;-57
2022/07/09 03:27:55;;;;;;;2.50;2.17;;;;;;;23.22;nan;-24461.72;4961275;28;20188;-57
2022/07/09 03:30:20;;;;;;;3.25;2.50;;;;;;;23.08;nan;-24457.72;4960313;28;20206;-56
2022/07/09 03:32:46;;;;;;;3.50;2.53;;;;;;;22.74;nan;-24448.59;4959836;28;20716;-57
2022/07/09 03:35:11;;;;;;;4.35;2.60;;;;;;;22.92;nan;-24453.28;4959414;28;20918;-58
2022/07/09 03:37:36;;;;;;;3.40;2.28;;;;;;;24.40;nan;-24493.75;4959882;28;20178;-57
2022/07/09 03:40:03;;;;;;;4.28;2.60;;;;;;;25.52;nan;-24524.31;4958161;28;20701;-58
2022/07/09 03:42:28;;;;;;;2.83;2.10;;;;;;;26.31;nan;-24545.91;4960911;28;20181;-59
2022/07/09 03:44:54;;;;;;;3.42;2.47;;;;;;;27.31;nan;-24572.94;4961385;28;20196;-60
2022/07/09 03:47:19;;;;;;;4.60;2.47;;;;;;;27.82;nan;-24586.78;4959438;28;20274;-59
2022/07/09 03:49:45;;;;;;;2.90;2.35;;;;;;;28.50;nan;-24605.13;4961844;28;20201;-57
2022/07/09 03:52:11;;;;;;;2.55;2.05;;;;;;;27.95;nan;-24590.19;4959399;28;20182;-58
2022/07/09 03:54:37;;;;;;;3.65;2.50;;;;;;;26.62;nan;-24554.13;4963385;28;20181;-57
2022/07/09 03:57:02;;;;;;;2.95;2.55;;;;;;;25.55;nan;-24525.13;4959776;28;20186;-58
2022/07/09 03:59:27;;;;;;;3.58;2.60;;;;;;;24.49;nan;-24496.22;4960323;28;20185;-58
2022/07/09 04:01:53;;;;;;;4.72;2.40;;;;;;;24.10;nan;-24485.59;4960982;28;20173;-57
2022/07/09 04:04:18;;;;;;;2.65;2.10;;;;;;;24.28;nan;-24490.56;4958952;28;20197;-57
2022/07/09 04:06:44;;;;;;;3.58;2.40;;;;;;;23.96;nan;-24481.72;4959374;28;20189;-57
2022/07/09 04:09:09;;;;;;;3.30;2.50;;;;;;;23.59;nan;-24471.81;4958363;28;20189;-58
2022/07/09 04:11:35;;;;;;;2.83;2.25;;;;;;;23.63;nan;-24472.78;4961236;28;20177;-59
2022/07/09 04:14:01;;;;;;;3.65;2.58;;;;;;;23.48;nan;-24468.78;4962534;28;20190;-59
2022/07/09 04:16:28;;;;;;;3.83;2.67;;;;;;;23.40;nan;-24466.56;4959992;28;20181;-58
2022/07/09 04:18:53;;;;;;;3.25;2.30;;;;;;;23.37;nan;-24465.72;4956636;28;20217;-57
2022/07/09 04:21:21;;;;;;;4.72;2.60;;;;;;;23.22;nan;-24461.72;4966178;28;20209;-57
2022/07/09 04:23:50;;;;;;;3.72;2.63;;;;;;;23.25;nan;-24462.56;4961297;28;20645;-59
2022/07/09 04:26:16;;;;;;;5.55;2.83;;;;;;;23.41;nan;-24466.69;4956965;28;20241;-58
2022/07/09 04:28:42;;;;;;;4.15;3.13;;;;;;;23.41;nan;-24466.81;4959714;28;20564;-59
2022/07/09 04:31:07;;;;;;;2.67;2.20;;;;;;;23.45;nan;-24467.78;4962132;28;20217;-58
2022/07/09 04:33:33;;;;;;;3.10;2.13;;;;;;;23.29;nan;-24463.50;4960606;28;20219;-58
2022/07/09 04:35:58;;;;;;;2.88;2.38;;;;;;;23.37;nan;-24465.72;4959880;28;20183;-58
2022/07/09 04:38:24;;;;;;;4.00;2.53;;;;;;;23.25;nan;-24462.56;4956795;28;20233;-58
2022/07/09 04:40:50;;;;;;;3.03;2.30;;;;;;;23.20;nan;-24461.03;4960524;28;20671;-59
2022/07/09 04:43:16;;;;;;;3.33;2.40;;;;;;;23.03;nan;-24456.34;4959040;28;20186;-59
2022/07/09 04:45:41;;;;;;;4.47;2.38;;;;;;;22.93;nan;-24453.72;4959920;28;20289;-58
2022/07/09 04:48:07;;;;;;;3.15;2.28;;;;;;;23.05;nan;-24456.88;4958472;28;20170;-58
2022/07/09 04:50:32;;;;;;;3.45;2.60;;;;;;;22.91;nan;-24453.16;4956199;28;20217;-58
2022/07/09 04:52:58;;;;;;;2.63;2.17;;;;;;;23.23;nan;-24462.00;4957037;28;20235;-58
2022/07/09 04:55:23;;;;;;;3.78;2.58;;;;;;;23.21;nan;-24461.31;4962862;28;20208;-59
2022/07/09 04:57:49;;;;;;;3.30;2.60;;;;;;;23.22;nan;-24461.56;4966387;28;20208;-58
2022/07/09 05:00:15;;;;;;;2.95;2.30;;;;;;;23.16;nan;-24459.94;4955904;28;20577;-58
2022/07/09 05:02:42;;;;;;;3.33;2.63;;;;;;;23.30;nan;-24463.78;4956648;28;20198;-58
2022/07/09 05:05:09;;;;;;;2.88;2.25;;;;;;;22.64;nan;-24445.81;4957996;28;20194;-59
2022/07/09 05:07:34;;;;;;;3.55;2.50;;;;;;;23.59;nan;-24471.81;4958784;28;20733;-59
2022/07/09 05:10:04;;;;;;;3.38;2.47;;;;;;;23.46;nan;-24468.22;4957286;28;20198;-58
2022/07/09 05:12:30;;;;;;;3.55;2.45;;;;;;;23.63;nan;-24472.91;4958550;28;20677;-59
2022/07/09 05:14:56;;;;;;;3.10;2.30;;;;;;;23.52;nan;-24469.72;4958831;28;20182;-59
2022/07/09 05:17:22;;;;;;;4.03;2.80;;;;;;;23.59;nan;-24471.66;4956818;28;20190;-59
2022/07/09 05:19:48;;;;;;;4.45;2.55;;;;;;;24.06;nan;-24484.50;4959527;28;20224;-59
2022/07/09 05:22:13;;;;;;;3.40;2.50;;;;;;;23.82;nan;-24477.88;4958485;28;20201;-58
2022/07/09 05:24:40;;;;;;;5.45;2.70;;;;;;;23.72;nan;-24475.38;4957813;28;20244;-59
2022/07/09 05:27:06;;;;;;;3.00;2.30;;;;;;;23.75;nan;-24476.09;4956879;28;20178;-59
2022/07/09 05:29:32;;;;;;;4.45;2.70;;;;;;;23.77;nan;-24476.78;4954257;28;20267;-59
2022/07/09 05:31:57;;;;;;;3.17;2.33;;;;;;;24.10;nan;-24485.75;4958883;28;21044;-60
2022/07/09 05:34:24;;;;;;;2.83;2.22;;;;;;;24.07;nan;-24484.91;4954432;28;20265;-59
2022/07/09 05:36:51;;;;;;;3.50;2.30;;;;;;;23.78;nan;-24476.91;4957576;28;20189;-60
2022/07/09 05:39:17;;;;;;;3.50;2.38;;;;;;;23.93;nan;-24480.91;4957740;28;20189;-58
2022/07/09 05:41:43;;;;;;;3.17;2.33;;;;;;;23.64;nan;-24473.19;4956582;28;20194;-61
2022/07/09 05:44:09;;;;;;;2.75;2.22;;;;;;;23.87;nan;-24479.38;4957545;28;20200;-59
2022/07/09 05:46:34;;;;;;;2.95;2.53;;;;;;;24.02;nan;-24483.53;4953601;28;20741;-59
2022/07/09 05:49:00;;;;;;;3.35;2.50;;;;;;;24.14;nan;-24486.69;4958354;28;20294;-58
2022/07/09 05:51:25;;;;;;;3.08;2.30;;;;;;;23.91;nan;-24480.34;4955627;28;20689;-59
2022/07/09 05:53:50;;;;;;;2.92;2.47;;;;;;;24.16;nan;-24487.25;4957353;28;20186;-59
2022/07/09 05:56:16;;;;;;;3.05;2.33;;;;;;;24.18;nan;-24487.81;4956658;28;20250;-58
2022/07/09 05:58:41;;;;;;;3.53;2.70;;;;;;;24.13;nan;-24486.44;4956688;28;20189;-59
2022/07/09 06:01:07;;;;;;;3.22;2.40;;;;;;;24.13;nan;-24486.44;4957897;28;20178;-58
2022/07/09 06:03:33;;;;;;;2.78;2.15;;;;;;;24.29;nan;-24490.84;4956002;28;21525;-58
2022/07/09 06:05:58;;;;;;;4.50;2.38;;;;;;;24.14;nan;-24486.84;4958462;28;20696;-59
2022/07/09 06:08:24;;;;;;;2.70;2.45;;;;;;;24.33;nan;-24491.94;4955405;28;20606;-59
2022/07/09 06:10:50;;;;;;;3.05;2.30;;;;;;;24.46;nan;-24495.53;4957234;28;20641;-58
2022/07/09 06:13:16;;;;;;;3.03;2.30;;;;;;;24.31;nan;-24491.25;4956933;28;20193;-58
2022/07/09 06:15:42;;;;;;;3.30;2.45;;;;;;;24.24;nan;-24489.31;4956386;28;20658;-57
2022/07/09 06:18:07;;;;;;;3.20;2.50;;;;;;;23.60;nan;-24472.06;4957256;28;20178;-58
2022/07/09 06:20:33;;;;;;;3.95;2.90;;;;;;;24.58;nan;-24498.69;4955985;28;20230;-57
2022/07/09 06:22:58;;;;;;;6.78;2.97;;;;;;;24.55;nan;-24498.00;4957216;28;20186;-57
2022/07/09 06:25:24;;;;;;;3.35;2.60;;;;;;;24.36;nan;-24492.78;4954929;28;20185;-58
2022/07/09 06:27:49;;;;;;;3.28;2.50;;;;;;;24.71;nan;-24502.16;4957099;28;20281;-59
2022/07/09 06:30:15;;;;;;;2.80;2.30;;;;;;;24.49;nan;-24496.22;4953468;28;20209;-58
2022/07/09 06:32:40;;;;;;;5.40;2.60;;;;;;;24.65;nan;-24500.75;4957977;28;20357;-59
2022/07/09 06:35:06;;;;;;;3.42;2.65;;;;;;;24.65;nan;-24500.63;4960184;28;20645;-59
2022/07/09 06:37:32;;;;;;;3.60;2.60;;;;;;;24.64;nan;-24500.34;4961980;28;20228;-58
2022/07/09 06:39:59;;;;;;;4.78;2.85;;;;;;;24.56;nan;-24498.16;4961437;28;20212;-58
2022/07/09 06:42:25;;;;;;;4.57;2.83;;;;;;;24.50;nan;-24496.63;4961532;28;20723;-59
2022/07/09 06:44:50;;;;;;;5.07;2.65;;;;;;;24.62;nan;-24499.94;4959378;28;20186;-60
2022/07/09 06:47:16;;;;;;;2.97;2.55;;;;;;;24.87;nan;-24506.56;4970786;28;20185;-58
2022/07/09 06:49:41;;;;;;;3.13;2.33;;;;;;;24.81;nan;-24504.91;4964721;28;20689;-58
2022/07/09 06:52:07;;;;;;;3.25;2.63;;;;;;;24.99;nan;-24509.84;4969243;28;20650;-58
2022/07/09 06:54:34;;;;;;;3.20;2.60;;;;;;;24.85;nan;-24506.13;4963462;28;20662;-58
2022/07/09 06:57:00;;;;;;;4.82;3.00;;;;;;;24.72;nan;-24502.41;4961632;28;20657;-58
2022/07/09 06:59:25;;;;;;;3.13;2.42;;;;;;;24.65;nan;-24500.63;4958261;28;20217;-58
2022/07/09 07:01:51;;;;;;;4.00;2.60;;;;;;;25.07;nan;-24512.06;4959970;28;20190;-59
2022/07/09 07:04:16;;;;;;;3.17;2.50;;;;;;;24.67;nan;-24501.19;4968028;28;20181;-59
2022/07/09 07:06:42;;;;;;;3.67;2.92;;;;;;;24.92;nan;-24507.94;4967398;28;20177;-58
2022/07/09 07:09:08;;;;;;;3.40;2.63;;;;;;;25.01;nan;-24510.56;4965738;28;20296;-60
2022/07/09 07:11:34;;;;;;;4.15;2.80;;;;;;;25.09;nan;-24512.63;4961667;28;20650;-58
2022/07/09 07:14:00;;;;;;;4.70;2.78;;;;;;;25.13;nan;-24513.56;4960228;28;20189;-58
2022/07/09 07:16:25;;;;;;;4.28;2.60;;;;;;;25.42;nan;-24521.69;4958453;28;20260;-59
2022/07/09 07:18:51;;;;;;;3.22;2.60;;;;;;;25.37;nan;-24520.19;4961565;28;20188;-59
2022/07/09 07:21:16;;;;;;;3.75;2.80;;;;;;;25.42;nan;-24521.69;4962207;28;20188;-59
2022/07/09 07:23:42;;;;;;;4.35;2.90;;;;;;;25.30;nan;-24518.25;4961734;28;20181;-59
2022/07/09 07:26:07;;;;;;;4.22;2.80;;;;;;;25.62;nan;-24526.94;4959035;28;20182;-59
2022/07/09 07:28:34;;;;;;;3.63;2.67;;;;;;;25.72;nan;-24529.69;4961303;28;20691;-58
2022/07/09 07:30:59;;;;;;;3.65;2.42;;;;;;;25.77;nan;-24531.06;4960161;28;20561;-58
2022/07/09 07:33:25;;;;;;;4.40;2.92;;;;;;;26.23;nan;-24543.56;4960031;28;20682;-59
2022/07/09 07:35:50;;;;;;;4.15;3.25;;;;;;;25.92;nan;-24535.31;4961368;28;20193;-57
2022/07/09 07:38:16;;;;;;;4.53;2.70;;;;;;;25.95;nan;-24536.00;4957657;28;20174;-58
2022/07/09 07:40:42;;;;;;;4.25;3.08;;;;;;;26.41;nan;-24548.38;4961322;28;20225;-59
2022/07/09 07:43:11;;;;;;;6.25;3.10;;;;;;;26.79;nan;-24558.94;4958238;28;20178;-58
2022/07/09 07:45:36;;;;;;;4.65;2.97;;;;;;;27.10;nan;-24567.31;4956862;28;20189;-58
2022/07/09 07:48:02;;;;;;;4.80;3.22;;;;;;;27.28;nan;-24572.09;4959283;28;20182;-58
2022/07/09 07:50:27;;;;;;;4.30;3.05;;;;;;;26.55;nan;-24552.22;4959724;28;20213;-58
2022/07/09 07:52:53;;;;;;;3.60;2.83;;;;;;;26.83;nan;-24559.91;4958144;28;20181;-58
2022/07/09 07:55:18;;;;;;;4.10;3.25;;;;;;;27.20;nan;-24570.06;4958682;28;20268;-58
2022/07/09 07:57:44;;;;;;;4.50;3.30;;;;;;;27.26;nan;-24571.56;4962751;28;20193;-59
2022/07/09 08:00:10;;;;;;;4.32;3.10;;;;;;;26.96;nan;-24563.47;4959930;28;20182;-58
2022/07/09 08:02:35;;;;;;;4.80;3.13;;;;;;;27.40;nan;-24575.41;4970285;28;20236;-58
2022/07/09 08:05:01;;;;;;;4.72;3.20;;;;;;;27.82;nan;-24586.78;4962570;28;20186;-59
2022/07/09 08:07:26;;;;;;;3.80;2.80;;;;;;;28.04;nan;-24592.78;4959207;28;20620;-59
2022/07/09 08:09:52;;;;;;;3.67;2.75;;;;;;;28.22;nan;-24597.44;4958085;28;20201;-58
2022/07/09 08:12:18;;;;;;;4.15;2.70;;;;;;;27.86;nan;-24587.72;4958636;28;20276;-58
2022/07/09 08:14:44;;;;;;;4.55;3.20;;;;;;;27.81;nan;-24586.34;4958620;28;20184;-59
2022/07/09 08:17:09;;;;;;;3.20;2.75;;;;;;;27.73;nan;-24584.31;4958210;28;20206;-58
2022/07/09 08:19:35;;;;;;;3.60;2.92;;;;;;;28.08;nan;-24593.88;4960326;28;20229;-59
2022/07/09 08:22:00;;;;;;;3.35;2.80;;;;;;;27.90;nan;-24588.81;4959008;28;20178;-58
2022/07/09 08:24:26;;;;;;;3.00;2.50;;;;;;;28.06;nan;-24593.34;4959019;28;20653;-58
2022/07/09 08:26:52;;;;;;;3.78;2.63;;;;;;;27.70;nan;-24583.47;4958040;28;20208;-59
2022/07/09 08:29:19;;;;;;;4.13;2.65;;;;;;;27.75;nan;-24584.84;4959166;28;20277;-60
2022/07/09 08:31:47;;;;;;;3.88;2.88;;;;;;;27.81;nan;-24586.50;4960583;28;20177;-59
2022/07/09 08:34:13;;;;;;;3.80;2.42;;;;;;;27.58;nan;-24580.19;4958051;28;20686;-59
2022/07/09 08:36:39;;;;;;;3.38;2.75;;;;;;;28.03;nan;-24592.53;4960422;28;20185;-58
2022/07/09 08:39:04;;;;;;;3.38;2.60;;;;;;;27.98;nan;-24591.16;4957936;28;20182;-58
2022/07/09 08:41:30;;;;;;;3.90;3.00;;;;;;;28.18;nan;-24596.50;4958845;28;20192;-58
2022/07/09 08:43:55;;;;;;;3.42;2.70;;;;;;;27.93;nan;-24589.78;4959403;28;20185;-59
2022/07/09 08:46:21;;;;;;;4.43;2.90;;;;;;;27.29;nan;-24572.38;4958423;28;20677;-58
2022/07/09 08:48:47;;;;;;;5.95;2.95;;;;;;;27.44;nan;-24576.50;4957713;28;20185;-59
2022/07/09 08:51:15;;;;;;;5.20;3.17;;;;;;;27.57;nan;-24579.91;4955773;28;20213;-58
2022/07/09 08:53:43;;;;;;;3.88;2.80;;;;;;;27.86;nan;-24587.72;4956508;28;20212;-59
2022/07/09 08:56:10;;;;;;;4.38;2.72;;;;;;;27.91;nan;-24589.25;4958094;28;20622;-57
2022/07/09 08:58:37;;;;;;;2.90;2.40;;;;;;;27.62;nan;-24581.44;4957643;28;20272;-58
2022/07/09 09:01:04;;;;;;;3.35;2.50;;;;;;;27.70;nan;-24583.47;4958255;28;20660;-59
2022/07/09 09:03:29;;;;;;;3.20;2.63;;;;;;;28.37;nan;-24601.56;4958943;28;20181;-59
2022/07/09 09:06:03;;;;;;;4.55;3.00;;;;;;;28.56;nan;-24606.75;4959363;28;20192;-58
2022/07/09 09:08:42;;;;;;;3.88;2.83;;;;;;;28.48;nan;-24604.56;4956223;28;20193;-59
2022/07/09 09:11:19;;;;;;;3.03;2.40;;;;;;;28.62;nan;-24608.41;4956478;28;20204;-59
2022/07/09 09:13:47;;;;;;;3.15;2.65;;;;;;;28.31;nan;-24599.91;4966628;28;20215;-58
2022/07/09 09:16:16;;;;;;;3.13;2.67;;;;;;;28.47;nan;-24604.28;4960031;28;20180;-57
2022/07/09 09:18:49;;;;;;;4.30;2.97;;;;;;;28.38;nan;-24601.84;4958449;28;20191;-58
2022/07/09 09:21:18;;;;;;;4.15;2.85;;;;;;;28.14;nan;-24595.25;4958235;28;20292;-58
2022/07/09 09:23:52;;;;;;;3.45;2.63;;;;;;;27.87;nan;-24588.00;4959222;28;20184;-57
2022/07/09 09:26:23;;;;;;;4.03;2.85;;;;;;;28.27;nan;-24598.81;4957784;28;20189;-59
2022/07/09 09:29:07;;;;;;;3.10;2.55;;;;;;;27.73;nan;-24584.16;4958603;28;20181;-58
2022/07/09 09:31:35;;;;;;;3.67;2.78;;;;;;;27.70;nan;-24583.47;4959147;28;20581;-58
2022/07/09 09:34:06;;;;;;;4.28;2.95;;;;;;;28.04;nan;-24592.66;4958347;28;20174;-58
2022/07/09 09:36:43;;;;;;;4.03;2.90;;;;;;;28.08;nan;-24593.75;4959338;28;20192;-59
2022/07/09 09:39:18;;;;;;;3.78;2.90;;;;;;;28.26;nan;-24598.53;4954180;28;20177;-58
2022/07/09 09:41:50;;;;;;;3.83;2.70;;;;;;;27.90;nan;-24588.97;4959047;28;20180;-59
2022/07/09 09:44:23;;;;;;;3.85;2.75;;;;;;;27.63;nan;-24581.56;4957435;28;20269;-58
2022/07/09 09:46:49;;;;;;;2.83;2.50;;;;;;;26.83;nan;-24559.91;4959604;28;20546;-57
2022/07/09 09:49:15;;;;;;;4.53;2.78;;;;;;;27.59;nan;-24580.47;4957556;28;20292;-58
2022/07/09 09:52:06;;;;;;;3.30;2.67;;;;;;;27.75;nan;-24584.84;4958345;28;20241;-60
2022/07/09 09:54:33;;;;;;;4.47;2.63;;;;;;;27.69;nan;-24583.22;4961001;28;20193;-59
2022/07/09 09:57:00;;;;;;;3.88;3.03;;;;;;;27.59;nan;-24580.59;4957451;28;20209;-59
2022/07/09 09:59:26;;;;;;;4.10;3.03;;;;;;;27.55;nan;-24579.38;4958387;28;20193;-59
2022/07/09 10:01:51;;;;;;;3.00;2.55;;;;;;;27.97;nan;-24590.75;4959643;28;20181;-59
2022/07/09 10:04:18;;;;;;;3.17;2.50;;;;;;;28.05;nan;-24592.94;4957982;28;20182;-59
2022/07/09 10:06:44;;;;;;;3.83;2.85;;;;;;;27.97;nan;-24590.88;4960556;28;20185;-58
2022/07/09 10:09:12;;;;;;;4.50;3.22;;;;;;;27.75;nan;-24584.72;4960856;28;20233;-59
2022/07/09 10:11:45;;;;;;;3.33;2.67;;;;;;;27.83;nan;-24586.91;4964701;28;20272;-59
2022/07/09 10:14:38;;;;;;;3.47;2.88;;;;;;;28.01;nan;-24591.97;4957587;28;20637;-58
2022/07/09 10:17:11;;;;;;;4.75;2.95;;;;;;;28.15;nan;-24595.69;4959886;28;20200;-59
2022/07/09 10:19:37;;;;;;;6.07;3.08;;;;;;;28.23;nan;-24597.88;4962813;28;20614;-59
2022/07/09 10:22:03;;;;;;;4.40;2.95;;;;;;;28.48;nan;-24604.56;4960851;28;20642;-59
2022/07/09 10:24:34;;;;;;;3.72;3.05;;;;;;;28.58;nan;-24607.28;4961629;28;20185;-60
2022/07/09 10:27:05;;;;;;;3.50;2.75;;;;;;;28.86;nan;-24614.81;4961066;28;20818;-59
2022/07/09 10:29:32;;;;;;;4.03;2.78;;;;;;;28.53;nan;-24606.06;4963333;28;20231;-59
2022/07/09 10:31:57;;;;;;;3.38;2.90;;;;;;;28.37;nan;-24601.56;4966048;28;20275;-60
2022/07/09 10:35:00;;;;;;;3.92;2.83;;;;;;;28.88;nan;-24615.50;4964609;28;20186;-60
2022/07/09 10:37:32;;;;;;;3.42;2.63;;;;;;;28.82;nan;-24613.88;4958700;28;20203;-61
2022/07/09 10:40:08;;;;;;;3.67;2.92;;;;;;;28.09;nan;-24594.16;4961094;28;20251;-60
2022/07/09 10:42:33;;;;;;;3.70;3.15;;;;;;;27.87;nan;-24588.00;4962114;28;20180;-59
2022/07/09 10:44:58;;;;;;;3.83;3.10;;;;;;;27.86;nan;-24587.88;4961539;28;20524;-58
2022/07/09 10:47:24;;;;;;;3.90;2.97;;;;;;;28.09;nan;-24594.03;4959207;28;20182;-61
2022/07/09 10:49:50;;;;;;;3.88;2.90;;;;;;;28.02;nan;-24592.25;4966247;28;20220;-60
2022/07/09 10:52:15;;;;;;;4.28;3.28;;;;;;;27.87;nan;-24588.00;4971755;28;20637;-60
2022/07/09 10:54:48;;;;;;;3.50;2.78;;;;;;;27.77;nan;-24585.25;4958794;28;20189;-60
2022/07/09 10:57:14;;;;;;;4.10;3.00;;;;;;;27.86;nan;-24587.88;4962646;28;20211;-59
2022/07/09 10:59:45;;;;;;;3.83;2.97;;;;;;;27.97;nan;-24590.88;4961240;28;20217;-60
2022/07/09 11:02:36;;;;;;;3.65;2.72;;;;;;;27.91;nan;-24589.25;4965265;28;20201;-60
2022/07/09 11:05:02;;;;;;;3.13;2.40;;;;;;;27.94;nan;-24589.91;4954512;28;20224;-58
2022/07/09 11:07:29;;;;;;;4.55;3.55;;;;;;;27.65;nan;-24582.25;4967717;28;20177;-60
2022/07/09 11:09:54;;;;;;;3.80;2.88;;;;;;;27.96;nan;-24590.47;4965213;28;20211;-59
2022/07/09 11:12:21;;;;;;;4.45;3.10;;;;;;;27.76;nan;-24585.00;4960096;28;20186;-60
2022/07/09 11:14:49;;;;;;;4.03;3.05;;;;;;;27.37;nan;-24574.56;4964178;28;20182;-60
2022/07/09 11:17:16;;;;;;;4.45;3.22;;;;;;;27.59;nan;-24580.59;4962152;28;20278;-60
2022/07/09 11:19:42;;;;;;;5.80;3.38;;;;;;;27.52;nan;-24578.56;4974736;28;20654;-59
2022/07/09 11:22:07;;;;;;;4.90;3.13;;;;;;;27.29;nan;-24572.38;4959870;28;20189;-60
2022/07/09 11:24:33;;;;;;;4.50;3.20;;;;;;;27.36;nan;-24574.16;4960208;28;20681;-61
2022/07/09 11:27:08;;;;;;;4.45;3.10;;;;;;;27.63;nan;-24581.56;4957686;28;20282;-60
2022/07/09 11:29:36;;;;;;;4.25;3.30;;;;;;;27.65;nan;-24582.13;4970783;28;20544;-61
2022/07/09 11:32:02;;;;;;;4.00;2.90;;;;;;;27.59;nan;-24580.47;4963251;28;20256;-59
2022/07/09 11:34:29;;;;;;;4.03;3.13;;;;;;;26.67;nan;-24555.66;4958424;28;20614;-57
2022/07/09 11:36:56;;;;;;;4.40;3.17;;;;;;;27.55;nan;-24579.38;4958710;28;20197;-58
2022/07/09 11:39:22;;;;;;;4.18;3.17;;;;;;;27.91;nan;-24589.25;4959737;28;20182;-59
2022/07/09 11:41:47;;;;;;;3.75;3.00;;;;;;;27.77;nan;-24585.25;4959411;28;20189;-59